createdAt,value
2019-05-02T00:01:47.710Z,99.90
2019-05-02T00:04:21.050Z,99.90
2019-05-02T00:07:14.341Z,99.90
2019-05-02T00:09:48.486Z,99.90
2019-05-02T00:12:18.943Z,99.90
2019-05-02T00:14:50.080Z,99.90
2019-05-02T00:17:25.575Z,99.90
2019-05-02T00:19:55.074Z,99.90
2019-05-02T00:22:26.328Z,99.90
2019-05-02T00:24:57.329Z,99.90
2019-05-02T00:27:28.233Z,99.90
2019-05-02T00:30:00.388Z,99.90
2019-05-02T00:32:31.258Z,99.90
2019-05-02T00:35:02.273Z,99.90
2019-05-02T00:37:33.094Z,99.90
2019-05-02T00:40:03.879Z,99.90
2019-05-02T00:42:34.777Z,99.90
2019-05-02T00:45:05.803Z,99.90
2019-05-02T00:47:47.883Z,99.90
2019-05-02T00:50:18.324Z,99.90
2019-05-02T00:52:49.297Z,99.90
2019-05-02T00:55:20.088Z,99.90
2019-05-02T00:57:55.273Z,99.90
2019-05-02T01:00:23.593Z,99.90
2019-05-02T01:02:58.286Z,99.90
2019-05-02T01:05:29.263Z,99.90
2019-05-02T01:08:01.142Z,99.90
2019-05-02T01:10:32.513Z,99.90
2019-05-02T01:13:03.413Z,99.90
2019-05-02T01:15:34.313Z,99.90
2019-05-02T01:18:06.080Z,99.90
2019-05-02T01:20:37.618Z,99.90
2019-05-02T01:23:08.389Z,99.90
2019-05-02T01:25:39.229Z,99.90
2019-05-02T01:28:27.394Z,99.90
2019-05-02T01:31:13.095Z,99.90
2019-05-02T01:34:05.048Z,99.90
2019-05-02T01:36:50.413Z,99.90
2019-05-02T01:39:21.381Z,99.90
2019-05-02T01:41:52.238Z,99.90
2019-05-02T01:44:23.109Z,99.90
2019-05-02T01:46:58.355Z,99.90
2019-05-02T01:49:26.382Z,99.90
2019-05-02T01:51:57.263Z,99.90
2019-05-02T01:54:27.973Z,99.90
2019-05-02T01:56:58.863Z,99.90
2019-05-02T01:59:33.921Z,99.90
2019-05-02T02:02:02.331Z,99.90
2019-05-02T02:04:33.158Z,99.90
2019-05-02T02:07:04.031Z,99.90
2019-05-02T02:09:38.900Z,99.90
2019-05-02T02:12:09.764Z,99.90
2019-05-02T02:14:39.724Z,99.90
2019-05-02T02:17:15.608Z,99.90
2019-05-02T02:19:50.653Z,99.90
2019-05-02T02:22:44.328Z,99.90
2019-05-02T02:25:32.300Z,99.90
2019-05-02T02:28:02.048Z,99.90
2019-05-02T02:30:32.874Z,99.90
2019-05-02T02:33:07.399Z,99.90
2019-05-02T02:35:36.285Z,99.90
2019-05-02T02:38:07.364Z,99.90
2019-05-02T02:40:38.329Z,99.90
2019-05-02T02:43:29.910Z,99.90
2019-05-02T02:45:57.624Z,99.90
2019-05-02T02:48:24.410Z,99.90
2019-05-02T02:50:55.215Z,99.90
2019-05-02T02:53:32.281Z,99.90
2019-05-02T02:56:06.002Z,99.90
2019-05-02T02:58:45.793Z,99.90
2019-05-02T03:01:09.845Z,99.90
2019-05-02T03:03:40.715Z,99.90
2019-05-02T03:06:11.649Z,99.90
2019-05-02T03:08:46.613Z,99.90
2019-05-02T03:11:22.764Z,99.90
2019-05-02T03:14:10.418Z,99.90
2019-05-02T03:16:47.246Z,99.90
2019-05-02T03:19:21.054Z,99.90
2019-05-02T03:22:01.014Z,99.90
2019-05-02T03:24:28.423Z,99.90
2019-05-02T03:26:59.315Z,99.90
2019-05-02T03:29:41.487Z,99.90
2019-05-02T03:32:14.776Z,99.90
2019-05-02T03:34:46.655Z,99.90
2019-05-02T03:37:10.677Z,99.90
2019-05-02T03:39:40.569Z,99.90
2019-05-02T03:42:11.406Z,99.90
2019-05-02T03:44:42.245Z,99.90
2019-05-02T03:47:13.224Z,99.90
2019-05-02T03:49:48.554Z,99.90
2019-05-02T03:52:16.805Z,99.90
2019-05-02T03:54:50.556Z,99.90
2019-05-02T03:57:32.154Z,99.90
2019-05-02T03:59:53.089Z,99.90
2019-05-02T04:02:24.968Z,99.90
2019-05-02T04:05:00.671Z,99.90
2019-05-02T04:07:39.333Z,99.90
2019-05-02T04:10:01.908Z,99.90
2019-05-02T04:12:33.215Z,99.90
2019-05-02T04:15:04.343Z,99.90
2019-05-02T04:17:37.353Z,99.90
2019-05-02T04:20:10.178Z,99.90
2019-05-02T04:22:42.723Z,99.90
2019-05-02T04:25:13.443Z,99.90
2019-05-02T04:27:45.115Z,99.90
2019-05-02T04:30:16.051Z,99.90
2019-05-02T04:32:49.731Z,99.90
2019-05-02T04:35:19.415Z,99.90
2019-05-02T04:37:50.413Z,99.90
2019-05-02T04:40:21.269Z,99.90
2019-05-02T04:43:02.033Z,99.90
2019-05-02T04:45:29.397Z,99.90
2019-05-02T04:48:01.034Z,99.90
2019-05-02T04:50:29.595Z,99.90
2019-05-02T04:53:00.404Z,99.90
2019-05-02T04:55:33.363Z,99.90
2019-05-02T04:58:03.919Z,99.90
2019-05-02T05:00:34.840Z,99.90
2019-05-02T05:03:07.216Z,99.90
2019-05-02T05:05:40.374Z,99.90
2019-05-02T05:08:10.594Z,99.90
2019-05-02T05:10:44.941Z,99.90
2019-05-02T05:13:19.854Z,99.90
2019-05-02T05:15:49.553Z,99.90
2019-05-02T05:18:18.945Z,99.90
2019-05-02T05:20:52.995Z,99.90
2019-05-02T05:23:43.888Z,99.90
2019-05-02T05:26:14.963Z,99.90
2019-05-02T05:28:47.661Z,99.90
2019-05-02T05:31:24.187Z,99.90
2019-05-02T05:33:50.663Z,99.90
2019-05-02T05:36:29.187Z,99.90
2019-05-02T05:38:53.798Z,99.90
2019-05-02T05:41:24.769Z,99.90
2019-05-02T05:43:57.381Z,99.90
2019-05-02T05:46:28.219Z,99.90
2019-05-02T05:48:59.091Z,99.90
2019-05-02T05:51:29.953Z,99.90
2019-05-02T05:54:03.183Z,99.90
2019-05-02T05:56:39.737Z,99.90
2019-05-02T05:59:07.720Z,99.90
2019-05-02T06:01:38.569Z,99.90
2019-05-02T06:04:13.756Z,99.90
2019-05-02T06:06:41.909Z,99.90
2019-05-02T06:09:13.928Z,99.90
2019-05-02T06:11:44.933Z,99.90
2019-05-02T06:14:20.020Z,99.90
2019-05-02T06:16:51.756Z,99.90
2019-05-02T06:19:20.623Z,99.90
2019-05-02T06:21:51.695Z,99.90
2019-05-02T06:24:22.587Z,99.90
2019-05-02T06:26:53.363Z,99.90
2019-05-02T06:29:24.323Z,99.90
2019-05-02T06:31:55.174Z,99.90
2019-05-02T06:34:25.955Z,99.90
2019-05-02T06:36:56.888Z,99.90
2019-05-02T06:39:31.875Z,99.90
2019-05-02T06:42:00.578Z,99.90
2019-05-02T06:44:31.375Z,99.90
2019-05-02T06:47:04.400Z,99.90
2019-05-02T06:49:34.948Z,99.90
2019-05-02T06:52:05.663Z,99.90
2019-05-02T06:54:36.529Z,99.90
2019-05-02T06:57:07.468Z,99.90
2019-05-02T06:59:38.348Z,99.90
2019-05-02T07:02:09.368Z,99.90
2019-05-02T07:04:40.350Z,99.90
2019-05-02T07:07:13.151Z,99.90
2019-05-02T07:09:43.628Z,99.90
2019-05-02T07:12:16.488Z,99.90
2019-05-02T07:14:47.023Z,99.90
2019-05-02T07:17:38.393Z,99.90
2019-05-02T07:20:09.937Z,99.90
2019-05-02T07:22:40.966Z,99.90
2019-05-02T07:25:12.108Z,99.90
2019-05-02T07:27:42.983Z,99.90
2019-05-02T07:30:14.208Z,99.90
2019-05-02T07:32:45.993Z,99.90
2019-05-02T07:35:19.237Z,99.90
2019-05-02T07:37:50.120Z,99.90
2019-05-02T07:40:21.053Z,99.90
2019-05-02T07:42:51.938Z,99.90
2019-05-02T07:45:22.718Z,99.90
2019-05-02T07:47:53.528Z,99.90
2019-05-02T07:50:24.428Z,99.90
2019-05-02T07:52:55.628Z,99.90
2019-05-02T07:55:26.463Z,99.90
2019-05-02T07:57:57.147Z,99.90
2019-05-02T08:00:32.054Z,99.90
2019-05-02T08:03:00.428Z,99.90
2019-05-02T08:05:31.313Z,99.90
2019-05-02T08:08:02.113Z,99.90
2019-05-02T08:10:33.093Z,99.90
2019-05-02T08:13:03.823Z,99.90
2019-05-02T08:15:34.753Z,99.90
2019-05-02T08:18:05.838Z,99.90
2019-05-02T08:20:36.603Z,99.90
2019-05-02T08:23:07.378Z,99.90
2019-05-02T08:25:41.455Z,99.90
2019-05-02T08:28:19.018Z,99.90
2019-05-02T08:30:53.113Z,99.90
2019-05-02T08:33:23.939Z,99.90
2019-05-02T08:35:54.813Z,99.90
2019-05-02T08:38:25.653Z,99.90
2019-05-02T08:40:56.413Z,99.90
2019-05-02T08:43:27.198Z,99.90
2019-05-02T08:45:58.083Z,99.90
2019-05-02T08:48:28.884Z,99.90
2019-05-02T08:50:59.593Z,99.90
2019-05-02T08:53:31.508Z,99.90
2019-05-02T08:56:02.319Z,99.90
2019-05-02T08:58:33.133Z,99.90
2019-05-02T09:01:04.238Z,99.90
2019-05-02T09:03:53.925Z,99.90
2019-05-02T09:06:07.499Z,99.90
2019-05-02T09:08:38.269Z,99.90
2019-05-02T09:11:14.212Z,99.90
2019-05-02T09:13:42.193Z,99.90
2019-05-02T09:16:14.233Z,99.90
2019-05-02T09:18:50.891Z,99.90
2019-05-02T09:21:17.358Z,99.90
2019-05-02T09:23:48.283Z,99.90
2019-05-02T09:26:31.984Z,99.90
2019-05-02T09:28:51.794Z,99.90
2019-05-02T09:31:22.730Z,99.90
2019-05-02T09:33:55.607Z,99.90
2019-05-02T09:36:25.943Z,99.90
2019-05-02T09:38:57.646Z,99.90
2019-05-02T09:41:34.504Z,99.90
2019-05-02T09:44:02.740Z,99.90
2019-05-02T09:46:33.383Z,99.90
2019-05-02T09:49:09.672Z,99.90
2019-05-02T09:51:36.544Z,99.90
2019-05-02T09:54:07.308Z,99.90
2019-05-02T09:56:38.189Z,99.90
2019-05-02T09:59:24.428Z,99.90
2019-05-02T10:01:42.227Z,99.90
2019-05-02T10:04:13.139Z,99.90
2019-05-02T10:06:44.054Z,99.90
2019-05-02T10:09:18.742Z,99.90
2019-05-02T10:11:47.264Z,99.90
2019-05-02T10:14:18.060Z,99.90
2019-05-02T10:16:48.919Z,99.90
2019-05-02T10:19:19.832Z,99.90
2019-05-02T10:21:54.315Z,99.90
2019-05-02T10:24:23.168Z,99.90
2019-05-02T10:27:02.881Z,99.90
2019-05-02T10:29:28.419Z,99.90
2019-05-02T10:31:59.383Z,99.90
2019-05-02T10:34:30.208Z,99.90
2019-05-02T10:37:02.838Z,99.90
2019-05-02T10:39:37.710Z,99.90
2019-05-02T10:42:06.333Z,99.90
2019-05-02T10:44:37.229Z,99.90
2019-05-02T10:47:08.243Z,99.90
2019-05-02T10:49:44.563Z,99.90
2019-05-02T10:52:15.395Z,99.90
2019-05-02T10:54:46.235Z,99.90
2019-05-02T10:57:17.223Z,99.90
2019-05-02T10:59:48.203Z,99.90
2019-05-02T11:02:36.814Z,99.90
2019-05-02T11:05:16.940Z,99.90
2019-05-02T11:07:45.198Z,99.90
2019-05-02T11:10:16.148Z,99.90
2019-05-02T11:13:08.889Z,99.90
2019-05-02T11:16:13.353Z,99.90
2019-05-02T11:18:54.668Z,99.90
2019-05-02T11:21:25.754Z,99.90
2019-05-02T11:23:56.816Z,99.90
2019-05-02T11:26:27.783Z,99.90
2019-05-02T11:28:58.708Z,99.90
2019-05-02T11:31:29.693Z,99.90
2019-05-02T11:34:01.805Z,99.90
2019-05-02T11:36:33.042Z,99.90
2019-05-02T11:39:15.275Z,99.90
2019-05-02T11:41:38.543Z,99.90
2019-05-02T11:44:09.338Z,99.90
2019-05-02T11:46:42.899Z,99.90
2019-05-02T11:49:12.837Z,99.90
2019-05-02T11:51:47.137Z,99.90
2019-05-02T11:54:16.123Z,99.90
2019-05-02T11:56:51.297Z,99.90
2019-05-02T11:59:20.798Z,99.90
2019-05-02T12:02:09.314Z,99.90
2019-05-02T12:04:37.558Z,99.90
2019-05-02T12:07:08.358Z,99.90
2019-05-02T12:09:39.113Z,99.90
2019-05-02T12:12:11.920Z,99.90
2019-05-02T12:14:42.638Z,99.90
2019-05-02T12:17:13.498Z,99.90
2019-05-02T12:19:44.328Z,99.90
2019-05-02T12:22:16.938Z,99.90
2019-05-02T12:24:47.699Z,99.90
2019-05-02T12:27:18.564Z,99.90
2019-05-02T12:29:50.150Z,99.90
2019-05-02T12:32:22.453Z,99.90
2019-05-02T12:34:53.718Z,99.90
2019-05-02T12:37:24.463Z,99.90
2019-05-02T12:39:55.343Z,99.90
2019-05-02T12:42:26.866Z,99.90
2019-05-02T12:44:57.854Z,99.90
2019-05-02T12:47:28.729Z,99.90
2019-05-02T12:49:59.788Z,99.90
2019-05-02T12:52:32.073Z,99.90
2019-05-02T12:55:03.014Z,99.90
2019-05-02T12:57:33.943Z,99.90
2019-05-02T13:00:05.498Z,99.90
2019-05-02T13:02:58.104Z,99.90
2019-05-02T13:05:28.989Z,99.90
2019-05-02T13:07:59.723Z,99.90
2019-05-02T13:10:45.258Z,99.90
2019-05-02T13:13:16.305Z,99.90
2019-05-02T13:15:47.168Z,99.90
2019-05-02T13:18:18.772Z,99.90
2019-05-02T13:20:52.637Z,99.90
2019-05-02T13:23:47.563Z,99.90
2019-05-02T13:26:21.928Z,99.90
2019-05-02T13:28:51.686Z,98.80
2019-05-02T13:31:46.968Z,96.40
2019-05-02T13:34:33.628Z,96.60
2019-05-02T13:37:06.009Z,95.80
2019-05-02T13:39:42.344Z,99.20
2019-05-02T13:42:13.929Z,99.90
2019-05-02T13:45:02.466Z,99.00
2019-05-02T13:47:33.618Z,95.70
2019-05-02T13:50:04.436Z,95.30
2019-05-02T13:52:35.535Z,98.40
2019-05-02T13:55:08.533Z,98.00
2019-05-02T13:57:43.165Z,98.20
2019-05-02T14:00:13.708Z,99.80
2019-05-02T14:02:45.433Z,99.50
2019-05-02T14:05:17.208Z,99.70
2019-05-02T14:07:55.707Z,99.30
2019-05-02T14:10:39.545Z,99.60
2019-05-02T14:13:07.789Z,99.90
2019-05-02T14:15:41.940Z,99.90
2019-05-02T14:18:12.688Z,99.90
2019-05-02T14:20:43.594Z,99.90
2019-05-02T14:23:14.503Z,99.90
2019-05-02T14:25:45.363Z,99.60
2019-05-02T14:28:16.318Z,99.90
2019-05-02T14:30:47.113Z,99.90
2019-05-02T14:33:23.216Z,99.90
2019-05-02T14:35:54.222Z,99.90
2019-05-02T14:38:25.193Z,99.90
2019-05-02T14:41:12.713Z,99.90
2019-05-02T14:43:56.928Z,99.90
2019-05-02T14:46:34.130Z,99.90
2019-05-02T14:49:02.536Z,99.90
2019-05-02T14:51:36.277Z,99.40
2019-05-02T14:54:08.354Z,99.30
2019-05-02T14:56:55.873Z,99.90
2019-05-02T14:59:28.937Z,99.90
2019-05-02T15:02:05.795Z,99.90
2019-05-02T15:04:38.315Z,99.90
2019-05-02T15:07:07.058Z,99.90
2019-05-02T15:09:37.779Z,99.90
2019-05-02T15:12:14.717Z,99.90
2019-05-02T15:14:43.114Z,99.90
2019-05-02T15:17:13.515Z,99.90
2019-05-02T15:19:44.684Z,99.90
2019-05-02T15:22:16.303Z,99.90
2019-05-02T15:24:47.059Z,99.90
2019-05-02T15:27:18.040Z,99.90
2019-05-02T15:29:52.932Z,99.90
2019-05-02T15:32:37.388Z,99.60
2019-05-02T15:35:26.831Z,99.90
2019-05-02T15:37:56.733Z,99.30
2019-05-02T15:43:02.820Z,99.90
2019-05-02T15:45:36.613Z,99.90
2019-05-02T15:48:05.281Z,99.90
2019-05-02T15:50:35.996Z,99.90
2019-05-02T15:53:16.010Z,99.90
2019-05-02T15:55:46.789Z,99.90
2019-05-02T15:58:23.705Z,99.90
2019-05-02T16:01:15.373Z,99.90
2019-05-02T16:03:48.225Z,99.90
2019-05-02T16:06:21.838Z,99.90
2019-05-02T16:08:51.964Z,99.90
2019-05-02T16:11:23.181Z,99.90
2019-05-02T16:13:55.898Z,99.90
2019-05-02T16:16:26.464Z,99.90
2019-05-02T16:18:57.401Z,99.90
2019-05-02T16:21:37.063Z,99.90
2019-05-02T16:24:22.576Z,99.90
2019-05-02T16:26:56.617Z,99.90
2019-05-02T16:29:28.350Z,99.90
2019-05-02T16:32:26.557Z,99.90
2019-05-02T16:35:00.093Z,99.90
2019-05-02T16:37:32.380Z,99.90
2019-05-02T16:40:03.429Z,99.90
2019-05-02T16:42:34.633Z,99.90
2019-05-02T16:45:05.954Z,99.90
2019-05-02T16:47:36.893Z,99.90
2019-05-02T16:50:12.027Z,99.90
2019-05-02T16:52:43.658Z,99.90
2019-05-02T16:55:20.729Z,99.90
2019-05-02T16:57:49.238Z,99.90
2019-05-02T17:00:23.783Z,99.90
2019-05-02T17:02:54.746Z,99.90
2019-05-02T17:05:25.613Z,99.90
2019-05-02T17:08:22.553Z,99.90
2019-05-02T17:10:57.114Z,99.90
2019-05-02T17:13:32.764Z,99.90
2019-05-02T17:16:06.951Z,99.90
2019-05-02T17:18:33.133Z,99.90
2019-05-02T17:21:04.074Z,99.90
2019-05-02T17:23:37.454Z,99.90
2019-05-02T17:26:07.598Z,99.90
2019-05-02T17:28:43.357Z,99.90
2019-05-02T17:31:19.081Z,99.90
2019-05-02T17:33:46.156Z,99.90
2019-05-02T17:36:16.173Z,99.90
2019-05-02T17:38:46.934Z,99.90
2019-05-02T17:41:17.813Z,99.90
2019-05-02T17:43:49.057Z,99.90
2019-05-02T17:46:21.941Z,99.90
2019-05-02T17:48:53.772Z,99.90
2019-05-02T17:51:46.191Z,99.90
2019-05-02T17:54:17.542Z,99.90
2019-05-02T17:56:52.303Z,99.90
2019-05-02T17:59:20.928Z,99.90
2019-05-02T18:01:52.463Z,99.90
2019-05-02T18:04:23.369Z,99.90
2019-05-02T18:06:55.234Z,99.90
2019-05-02T18:09:30.641Z,99.90
2019-05-02T18:11:58.943Z,99.90
2019-05-02T18:14:29.769Z,99.90
2019-05-02T18:17:01.857Z,99.90
2019-05-02T18:19:32.885Z,99.90
2019-05-02T18:22:07.057Z,99.90
2019-05-02T18:24:37.325Z,99.90
2019-05-02T18:27:09.004Z,99.90
2019-05-02T18:29:42.643Z,99.90
2019-05-02T18:32:12.882Z,99.90
2019-05-02T18:34:43.763Z,99.90
2019-05-02T18:37:14.788Z,99.90
2019-05-02T18:39:50.872Z,99.90
2019-05-02T18:42:21.951Z,99.90
2019-05-02T18:44:53.129Z,99.90
2019-05-02T18:47:24.623Z,99.90
2019-05-02T18:50:01.801Z,99.90
2019-05-02T18:52:36.426Z,99.90
2019-05-02T18:55:01.617Z,99.90
2019-05-02T18:57:32.664Z,99.90
2019-05-02T19:00:03.509Z,99.90
2019-05-02T19:02:35.707Z,99.90
2019-05-02T19:05:13.502Z,99.90
2019-05-02T19:07:42.626Z,99.90
2019-05-02T19:10:13.264Z,99.90
2019-05-02T19:12:44.349Z,99.90
2019-05-02T19:15:15.402Z,99.90
2019-05-02T19:17:47.228Z,99.90
2019-05-02T19:21:06.404Z,99.90
2019-05-02T19:23:38.823Z,99.90
2019-05-02T19:26:12.504Z,99.90
2019-05-02T19:29:08.346Z,99.90
2019-05-02T19:31:44.394Z,99.90
2019-05-02T19:34:16.951Z,99.90
2019-05-02T19:36:45.554Z,99.90
2019-05-02T19:39:16.789Z,99.90
2019-05-02T19:41:48.213Z,99.90
2019-05-02T19:44:21.389Z,99.90
2019-05-02T19:46:52.103Z,99.90
2019-05-02T19:49:25.402Z,99.90
2019-05-02T19:51:56.502Z,99.90
2019-05-02T19:54:33.595Z,99.90
2019-05-02T19:57:01.318Z,99.90
2019-05-02T19:59:32.562Z,99.90
2019-05-02T20:02:06.079Z,99.90
2019-05-02T20:04:37.737Z,99.90
2019-05-02T20:07:09.764Z,99.90
2019-05-02T20:09:45.654Z,99.90
2019-05-02T20:12:15.607Z,99.90
2019-05-02T20:14:47.545Z,99.90
2019-05-02T20:17:20.305Z,99.90
2019-05-02T20:19:57.783Z,99.90
2019-05-02T20:22:27.554Z,99.90
2019-05-02T20:25:01.182Z,99.90
2019-05-02T20:27:32.954Z,99.90
2019-05-02T20:30:04.597Z,99.90
2019-05-02T20:32:35.679Z,99.90
2019-05-02T20:35:07.084Z,99.90
2019-05-02T20:37:38.078Z,99.90
2019-05-02T20:40:11.966Z,99.90
2019-05-02T20:42:43.285Z,99.90
2019-05-02T20:45:14.914Z,99.90
2019-05-02T20:47:45.979Z,99.90
2019-05-02T20:50:17.124Z,99.90
2019-05-02T20:52:48.176Z,99.90
2019-05-02T20:55:19.303Z,99.90
2019-05-02T20:57:52.623Z,99.90
2019-05-02T21:00:24.624Z,99.90
2019-05-02T21:02:55.716Z,99.90
2019-05-02T21:05:32.213Z,99.90
2019-05-02T21:08:28.659Z,99.90
2019-05-02T21:11:01.676Z,99.90
2019-05-02T21:13:32.772Z,99.90
2019-05-02T21:16:03.818Z,99.90
2019-05-02T21:18:34.599Z,99.90
2019-05-02T21:21:05.718Z,99.90
2019-05-02T21:23:46.523Z,99.90
2019-05-02T21:26:09.068Z,99.90
2019-05-02T21:28:39.951Z,99.90
2019-05-02T21:31:12.107Z,99.90
2019-05-02T21:33:43.219Z,99.90
2019-05-02T21:36:13.978Z,99.90
2019-05-02T21:38:44.958Z,99.90
2019-05-02T21:41:16.623Z,99.90
2019-05-02T21:43:47.573Z,99.90
2019-05-02T21:46:18.539Z,99.90
2019-05-02T21:48:49.494Z,99.90
2019-05-02T21:51:45.023Z,99.90
2019-05-02T21:54:46.448Z,99.90
2019-05-02T21:57:18.804Z,99.90
2019-05-02T21:59:49.623Z,99.90
2019-05-02T22:02:22.475Z,99.90
2019-05-02T22:04:52.985Z,99.90
2019-05-02T22:07:24.130Z,99.90
2019-05-02T22:09:54.990Z,99.90
2019-05-02T22:12:25.844Z,99.90
2019-05-02T22:14:56.629Z,99.90
2019-05-02T22:17:27.339Z,99.90
2019-05-02T22:19:58.129Z,99.90
2019-05-02T22:22:28.993Z,99.90
2019-05-02T22:24:59.748Z,99.90
2019-05-02T22:27:32.422Z,99.90
2019-05-02T22:30:03.485Z,99.90
2019-05-02T22:32:34.313Z,99.90
2019-05-02T22:35:05.483Z,99.90
2019-05-02T22:37:36.663Z,99.90
2019-05-02T22:40:09.833Z,99.90
2019-05-02T22:42:41.716Z,99.90
2019-05-02T22:45:13.226Z,99.90
2019-05-02T22:47:44.099Z,99.90
2019-05-02T22:50:15.163Z,99.90
2019-05-02T22:52:45.884Z,99.90
2019-05-02T22:55:16.815Z,99.90
2019-05-02T22:57:47.868Z,99.90
2019-05-02T23:00:18.790Z,99.90
2019-05-02T23:02:49.603Z,99.90
2019-05-02T23:05:20.753Z,99.90
2019-05-02T23:07:52.682Z,99.90
2019-05-02T23:10:23.634Z,99.90
2019-05-02T23:12:54.418Z,99.90
2019-05-02T23:15:25.264Z,99.90
2019-05-02T23:17:56.003Z,99.90
2019-05-02T23:20:27.383Z,99.90
2019-05-02T23:22:58.203Z,99.90
2019-05-02T23:25:46.608Z,99.90
2019-05-02T23:28:22.146Z,99.90
2019-05-02T23:30:53.454Z,99.90
2019-05-02T23:33:25.753Z,99.90
2019-05-02T23:35:56.598Z,99.90
2019-05-02T23:38:27.508Z,99.90
2019-05-02T23:40:58.388Z,99.90
2019-05-02T23:43:29.235Z,99.90
2019-05-02T23:46:02.227Z,99.90
2019-05-02T23:48:32.664Z,99.90
2019-05-02T23:51:03.588Z,99.90
2019-05-02T23:53:34.468Z,99.90
2019-05-02T23:56:05.254Z,99.90
2019-05-02T23:58:36.194Z,99.90
